Stalldalen, Sweden

10:56 AM CEST on May 06, 2015 (GMT +0200)
Nacktjarn 12 | | Change Station
CLOSE
Current Station
Personal Weather Station
Location: Örebro Län, ÖREBRO LäN
Elevation: 1020 ft
Nearby Weather Stations

Elev 1020 ft 59.97 °N, 15.14 °E | Updated 30 minutes ago

Overcast
Overcast
51.1 °F
Feels Like 51.1 °F
N
4.3
Wind Variable Wind from WSW
Gusts 9.8 mph

Today
High -- | Low -- °F
--% Chance of Precip.
Yesterday
High -- | Low -- °F
Precip. -- in
4:46 AM 9:09 PM
Waning Gibbous, 95% visible
Pressure 29.50 in
Visibility 6.2 miles
Clouds Mostly Cloudy 900 ft
Overcast 1700 ft
Dew Point 46 °F
Humidity 82%
Rainfall 0.42 in
Snow Depth Not available.
UV 2 out of 12
Pollen Not available.
Air Quality Not available.
Flu Activity Not available.
METAR ESSD 060850Z 23007KT 9999 BKN009 OVC017 11/10 Q0999 REDZ

More Conditions Fewer Conditions

Pressure 29.50 in
Visibility 6.2 miles
Clouds Mostly Cloudy 900 ft
Overcast 1700 ft
Dew Point 46 °F
Humidity 82%
Rainfall 0.42 in
Snow Depth Not available.
UV 2 out of 12
Pollen Not available.
Air Quality Not available.
Flu Activity Not available.
METAR ESSD 060850Z 23007KT 9999 BKN009 OVC017 11/10 Q0999 REDZ

More Conditions Fewer Conditions

10-Day Weather Forecast

Almanac

Astronomy

May. 06, 2015 Rise Set
Actual Time
Civil Twilight
Nautical Twilight
Astronomical Twilight
Moon
Length of Visible Light
Length of Day
Tomorrow will be .
, % of the Moon is Illuminated

Today's Extremes

Country Highs Country Lows

Community

WunderPhotos

Upload Photos

1,818,857 photos uploaded!

WunderBlogs® & News

Nearby

Air Quality

  Air Quality AQ Index Pollutant
Not available.

Snow Depth

Station Depth Elevation

Earthquake Activity

City Distance Mag. Time & Date
Minimum magnitude displayed is 2.5.

Coastal Water Temperatures

Place Temperature

Stations

Nearby Weather Stations

Station Location Temp. Windchill Dew Point Humidity Wind Precip. Elev Updated Type